sensor_id;sensor_type;location;lat;lon;timestamp;P1;durP1;ratioP1;P2;durP2;ratioP2
76703;SDS011;65631;44.498;0.166;2023-05-10T00:04:19;26.90;;;2.47;;
76703;SDS011;65631;44.498;0.166;2023-05-10T00:09:53;13.60;;;3.50;;
76703;SDS011;65631;44.498;0.166;2023-05-10T00:15:26;11.60;;;2.70;;
76703;SDS011;65631;44.498;0.166;2023-05-10T00:20:58;23.37;;;3.47;;
76703;SDS011;65631;44.498;0.166;2023-05-10T00:26:30;16.17;;;3.00;;
76703;SDS011;65631;44.498;0.166;2023-05-10T00:32:04;22.30;;;3.20;;
76703;SDS011;65631;44.498;0.166;2023-05-10T00:37:37;20.17;;;2.63;;
76703;SDS011;65631;44.498;0.166;2023-05-10T00:43:10;26.53;;;3.10;;
76703;SDS011;65631;44.498;0.166;2023-05-10T00:48:44;21.20;;;3.23;;
76703;SDS011;65631;44.498;0.166;2023-05-10T00:54:16;25.57;;;3.63;;
76703;SDS011;65631;44.498;0.166;2023-05-10T00:59:48;25.67;;;2.77;;
76703;SDS011;65631;44.498;0.166;2023-05-10T01:05:21;25.73;;;2.73;;
76703;SDS011;65631;44.498;0.166;2023-05-10T01:10:53;26.00;;;3.77;;
76703;SDS011;65631;44.498;0.166;2023-05-10T01:16:26;21.73;;;3.00;;
76703;SDS011;65631;44.498;0.166;2023-05-10T01:22:02;27.30;;;3.53;;
76703;SDS011;65631;44.498;0.166;2023-05-10T01:33:07;15.87;;;3.07;;
76703;SDS011;65631;44.498;0.166;2023-05-10T01:38:40;20.47;;;4.70;;
76703;SDS011;65631;44.498;0.166;2023-05-10T01:44:11;25.37;;;4.83;;
76703;SDS011;65631;44.498;0.166;2023-05-10T01:49:43;21.20;;;3.50;;
76703;SDS011;65631;44.498;0.166;2023-05-10T01:55:15;27.90;;;3.10;;
76703;SDS011;65631;44.498;0.166;2023-05-10T02:00:49;15.20;;;3.17;;
76703;SDS011;65631;44.498;0.166;2023-05-10T02:06:20;22.80;;;3.17;;
76703;SDS011;65631;44.498;0.166;2023-05-10T02:11:53;16.00;;;3.20;;
76703;SDS011;65631;44.498;0.166;2023-05-10T02:17:26;34.33;;;2.93;;
76703;SDS011;65631;44.498;0.166;2023-05-10T02:23:00;17.20;;;3.00;;
76703;SDS011;65631;44.498;0.166;2023-05-10T02:28:33;24.53;;;3.40;;
76703;SDS011;65631;44.498;0.166;2023-05-10T02:34:06;19.17;;;3.60;;
76703;SDS011;65631;44.498;0.166;2023-05-10T02:39:41;15.13;;;3.37;;
76703;SDS011;65631;44.498;0.166;2023-05-10T02:45:12;26.60;;;3.93;;
76703;SDS011;65631;44.498;0.166;2023-05-10T02:50:45;22.73;;;2.77;;
76703;SDS011;65631;44.498;0.166;2023-05-10T02:56:20;19.93;;;3.13;;
76703;SDS011;65631;44.498;0.166;2023-05-10T03:01:50;21.87;;;3.60;;
76703;SDS011;65631;44.498;0.166;2023-05-10T03:07:22;14.70;;;2.87;;
76703;SDS011;65631;44.498;0.166;2023-05-10T03:13:00;10.77;;;2.23;;
76703;SDS011;65631;44.498;0.166;2023-05-10T03:18:29;19.87;;;3.23;;
76703;SDS011;65631;44.498;0.166;2023-05-10T03:24:02;18.87;;;2.67;;
76703;SDS011;65631;44.498;0.166;2023-05-10T03:29:33;13.97;;;2.90;;
76703;SDS011;65631;44.498;0.166;2023-05-10T03:35:06;16.03;;;2.40;;
76703;SDS011;65631;44.498;0.166;2023-05-10T03:40:39;17.40;;;2.83;;
76703;SDS011;65631;44.498;0.166;2023-05-10T03:46:11;17.83;;;3.17;;
76703;SDS011;65631;44.498;0.166;2023-05-10T03:51:45;16.73;;;2.67;;
76703;SDS011;65631;44.498;0.166;2023-05-10T03:57:17;11.77;;;2.27;;
76703;SDS011;65631;44.498;0.166;2023-05-10T04:02:50;17.60;;;2.77;;
76703;SDS011;65631;44.498;0.166;2023-05-10T04:08:23;16.20;;;2.60;;
76703;SDS011;65631;44.498;0.166;2023-05-10T04:13:57;7.20;;;1.97;;
76703;SDS011;65631;44.498;0.166;2023-05-10T04:19:29;21.93;;;2.13;;
76703;SDS011;65631;44.498;0.166;2023-05-10T04:25:00;14.93;;;2.13;;
76703;SDS011;65631;44.498;0.166;2023-05-10T04:30:32;6.77;;;2.07;;
76703;SDS011;65631;44.498;0.166;2023-05-10T04:36:05;11.03;;;2.30;;
76703;SDS011;65631;44.498;0.166;2023-05-10T04:41:37;23.63;;;4.20;;
76703;SDS011;65631;44.498;0.166;2023-05-10T04:47:10;13.63;;;3.97;;
76703;SDS011;65631;44.498;0.166;2023-05-10T04:52:43;10.83;;;2.33;;
76703;SDS011;65631;44.498;0.166;2023-05-10T04:58:15;19.80;;;3.27;;
76703;SDS011;65631;44.498;0.166;2023-05-10T05:03:48;15.40;;;2.63;;
76703;SDS011;65631;44.498;0.166;2023-05-10T05:09:21;19.57;;;2.50;;
76703;SDS011;65631;44.498;0.166;2023-05-10T05:14:52;23.80;;;2.70;;
76703;SDS011;65631;44.498;0.166;2023-05-10T05:20:25;13.60;;;2.33;;
76703;SDS011;65631;44.498;0.166;2023-05-10T05:25:57;14.27;;;2.60;;
76703;SDS011;65631;44.498;0.166;2023-05-10T05:31:30;20.90;;;2.07;;
76703;SDS011;65631;44.498;0.166;2023-05-10T05:37:02;13.13;;;2.20;;
76703;SDS011;65631;44.498;0.166;2023-05-10T05:42:34;14.00;;;2.20;;
76703;SDS011;65631;44.498;0.166;2023-05-10T05:48:07;9.10;;;2.03;;
76703;SDS011;65631;44.498;0.166;2023-05-10T05:53:41;16.00;;;2.13;;
76703;SDS011;65631;44.498;0.166;2023-05-10T05:59:13;7.43;;;1.37;;
76703;SDS011;65631;44.498;0.166;2023-05-10T06:04:45;12.07;;;1.73;;
76703;SDS011;65631;44.498;0.166;2023-05-10T06:10:19;14.53;;;1.90;;
76703;SDS011;65631;44.498;0.166;2023-05-10T06:15:51;10.97;;;2.13;;
76703;SDS011;65631;44.498;0.166;2023-05-10T06:21:24;15.27;;;1.83;;
76703;SDS011;65631;44.498;0.166;2023-05-10T06:26:56;10.40;;;2.33;;
76703;SDS011;65631;44.498;0.166;2023-05-10T06:32:28;11.30;;;1.73;;
76703;SDS011;65631;44.498;0.166;2023-05-10T06:38:02;15.10;;;1.57;;
76703;SDS011;65631;44.498;0.166;2023-05-10T06:43:35;11.30;;;1.73;;
76703;SDS011;65631;44.498;0.166;2023-05-10T06:49:07;18.77;;;1.50;;
76703;SDS011;65631;44.498;0.166;2023-05-10T06:54:40;14.67;;;2.10;;
76703;SDS011;65631;44.498;0.166;2023-05-10T07:00:13;10.57;;;1.90;;
76703;SDS011;65631;44.498;0.166;2023-05-10T07:05:46;11.13;;;2.57;;
76703;SDS011;65631;44.498;0.166;2023-05-10T07:11:19;10.00;;;2.07;;
76703;SDS011;65631;44.498;0.166;2023-05-10T07:16:53;16.07;;;2.57;;
76703;SDS011;65631;44.498;0.166;2023-05-10T07:22:26;9.57;;;2.07;;
76703;SDS011;65631;44.498;0.166;2023-05-10T07:27:58;16.23;;;2.03;;
76703;SDS011;65631;44.498;0.166;2023-05-10T07:33:30;10.53;;;1.33;;
76703;SDS011;65631;44.498;0.166;2023-05-10T07:39:03;13.57;;;2.23;;
76703;SDS011;65631;44.498;0.166;2023-05-10T07:44:35;12.13;;;1.70;;
76703;SDS011;65631;44.498;0.166;2023-05-10T07:50:08;5.03;;;1.90;;
76703;SDS011;65631;44.498;0.166;2023-05-10T07:55:41;7.00;;;2.10;;
76703;SDS011;65631;44.498;0.166;2023-05-10T08:01:14;11.27;;;1.57;;
76703;SDS011;65631;44.498;0.166;2023-05-10T08:06:46;9.00;;;2.20;;
76703;SDS011;65631;44.498;0.166;2023-05-10T08:12:20;3.33;;;1.30;;
76703;SDS011;65631;44.498;0.166;2023-05-10T08:17:52;15.87;;;2.03;;
76703;SDS011;65631;44.498;0.166;2023-05-10T08:23:24;10.27;;;1.63;;
76703;SDS011;65631;44.498;0.166;2023-05-10T08:28:56;7.73;;;2.63;;
76703;SDS011;65631;44.498;0.166;2023-05-10T08:34:29;7.33;;;1.20;;
76703;SDS011;65631;44.498;0.166;2023-05-10T08:40:02;10.27;;;1.60;;
76703;SDS011;65631;44.498;0.166;2023-05-10T08:45:36;7.07;;;1.20;;
76703;SDS011;65631;44.498;0.166;2023-05-10T08:51:06;9.23;;;1.57;;
76703;SDS011;65631;44.498;0.166;2023-05-10T08:56:40;4.53;;;1.03;;
76703;SDS011;65631;44.498;0.166;2023-05-10T09:02:13;4.77;;;1.00;;
76703;SDS011;65631;44.498;0.166;2023-05-10T09:07:45;10.50;;;1.93;;
76703;SDS011;65631;44.498;0.166;2023-05-10T09:13:17;6.53;;;1.13;;
76703;SDS011;65631;44.498;0.166;2023-05-10T09:18:50;12.07;;;1.63;;
76703;SDS011;65631;44.498;0.166;2023-05-10T09:24:24;8.80;;;1.37;;
76703;SDS011;65631;44.498;0.166;2023-05-10T09:29:55;12.03;;;2.73;;
76703;SDS011;65631;44.498;0.166;2023-05-10T09:35:30;-1.00;;;-1.00;;
76703;SDS011;65631;44.498;0.166;2023-05-10T09:41:03;13.17;;;2.40;;
76703;SDS011;65631;44.498;0.166;2023-05-10T09:46:35;11.17;;;2.23;;
76703;SDS011;65631;44.498;0.166;2023-05-10T09:52:06;5.37;;;2.17;;
76703;SDS011;65631;44.498;0.166;2023-05-10T09:57:39;9.33;;;2.17;;
76703;SDS011;65631;44.498;0.166;2023-05-10T10:03:13;7.33;;;2.03;;
76703;SDS011;65631;44.498;0.166;2023-05-10T10:08:43;5.33;;;1.37;;
76703;SDS011;65631;44.498;0.166;2023-05-10T10:14:16;1.03;;;0.77;;
76703;SDS011;65631;44.498;0.166;2023-05-10T10:19:48;2.23;;;0.70;;
76703;SDS011;65631;44.498;0.166;2023-05-10T10:25:20;7.23;;;1.30;;
76703;SDS011;65631;44.498;0.166;2023-05-10T10:30:52;6.27;;;1.20;;
76703;SDS011;65631;44.498;0.166;2023-05-10T10:36:27;3.43;;;1.13;;
76703;SDS011;65631;44.498;0.166;2023-05-10T10:41:58;5.47;;;1.10;;
76703;SDS011;65631;44.498;0.166;2023-05-10T10:47:33;9.03;;;1.20;;
76703;SDS011;65631;44.498;0.166;2023-05-10T10:53:10;6.30;;;1.80;;
76703;SDS011;65631;44.498;0.166;2023-05-10T10:58:37;7.73;;;1.30;;
76703;SDS011;65631;44.498;0.166;2023-05-10T11:04:17;6.43;;;1.20;;
76703;SDS011;65631;44.498;0.166;2023-05-10T11:09:42;9.03;;;1.50;;
76703;SDS011;65631;44.498;0.166;2023-05-10T11:15:16;6.50;;;1.90;;
76703;SDS011;65631;44.498;0.166;2023-05-10T11:20:51;6.60;;;1.30;;
76703;SDS011;65631;44.498;0.166;2023-05-10T11:26:24;11.87;;;1.83;;
76703;SDS011;65631;44.498;0.166;2023-05-10T11:31:57;3.20;;;1.00;;
76703;SDS011;65631;44.498;0.166;2023-05-10T11:37:28;5.97;;;1.00;;
76703;SDS011;65631;44.498;0.166;2023-05-10T11:43:00;6.33;;;1.50;;
76703;SDS011;65631;44.498;0.166;2023-05-10T11:48:34;7.77;;;1.40;;
76703;SDS011;65631;44.498;0.166;2023-05-10T11:54:06;4.17;;;0.73;;
76703;SDS011;65631;44.498;0.166;2023-05-10T11:59:38;7.63;;;1.10;;
76703;SDS011;65631;44.498;0.166;2023-05-10T12:05:11;4.20;;;0.80;;
76703;SDS011;65631;44.498;0.166;2023-05-10T12:10:45;8.37;;;1.33;;
76703;SDS011;65631;44.498;0.166;2023-05-10T12:16:18;5.87;;;1.13;;
76703;SDS011;70080;44.504;0.168;2023-05-10T12:27:22;7.27;;;1.27;;
76703;SDS011;70080;44.504;0.168;2023-05-10T12:32:59;4.30;;;1.20;;
76703;SDS011;70080;44.504;0.168;2023-05-10T12:38:31;3.90;;;0.87;;
76703;SDS011;70080;44.504;0.168;2023-05-10T12:44:01;7.23;;;1.73;;
76703;SDS011;70080;44.504;0.168;2023-05-10T12:49:34;0.70;;;0.60;;
76703;SDS011;70080;44.504;0.168;2023-05-10T12:55:05;3.10;;;0.97;;
76703;SDS011;70080;44.504;0.168;2023-05-10T13:00:38;1.83;;;0.43;;
76703;SDS011;70080;44.504;0.168;2023-05-10T13:06:10;4.53;;;0.90;;
76703;SDS011;70080;44.504;0.168;2023-05-10T13:11:42;2.80;;;0.60;;
76703;SDS011;70080;44.504;0.168;2023-05-10T13:17:15;2.10;;;1.03;;
76703;SDS011;70080;44.504;0.168;2023-05-10T13:22:49;2.20;;;0.70;;
76703;SDS011;70080;44.504;0.168;2023-05-10T13:28:21;5.50;;;1.40;;
76703;SDS011;70080;44.504;0.168;2023-05-10T13:33:54;3.10;;;0.50;;
76703;SDS011;70080;44.504;0.168;2023-05-10T13:39:27;5.23;;;1.43;;
76703;SDS011;70080;44.504;0.168;2023-05-10T13:45:01;9.13;;;1.10;;
76703;SDS011;70080;44.504;0.168;2023-05-10T13:50:33;3.50;;;0.80;;
76703;SDS011;70080;44.504;0.168;2023-05-10T13:56:06;11.77;;;1.30;;
76703;SDS011;70080;44.504;0.168;2023-05-10T14:01:38;1.83;;;0.90;;
76703;SDS011;70080;44.504;0.168;2023-05-10T14:07:11;7.23;;;1.03;;
76703;SDS011;70080;44.504;0.168;2023-05-10T14:12:45;3.67;;;1.00;;
76703;SDS011;70080;44.504;0.168;2023-05-10T14:18:18;3.70;;;1.20;;
76703;SDS011;70080;44.504;0.168;2023-05-10T14:23:51;5.37;;;1.57;;
76703;SDS011;70080;44.504;0.168;2023-05-10T14:29:23;5.87;;;1.20;;
76703;SDS011;70080;44.504;0.168;2023-05-10T14:34:56;2.47;;;0.63;;
76703;SDS011;70080;44.504;0.168;2023-05-10T14:40:29;2.00;;;0.63;;
76703;SDS011;70080;44.504;0.168;2023-05-10T14:46:02;2.47;;;0.80;;
76703;SDS011;70080;44.504;0.168;2023-05-10T14:51:37;4.17;;;0.50;;
76703;SDS011;70080;44.504;0.168;2023-05-10T14:57:07;5.30;;;1.93;;
76703;SDS011;70080;44.504;0.168;2023-05-10T15:02:39;2.13;;;1.10;;
76703;SDS011;70080;44.504;0.168;2023-05-10T15:08:14;8.77;;;1.50;;
76703;SDS011;70080;44.504;0.168;2023-05-10T15:13:45;3.57;;;0.90;;
76703;SDS011;70080;44.504;0.168;2023-05-10T15:19:19;9.77;;;1.10;;
76703;SDS011;70080;44.504;0.168;2023-05-10T15:24:51;9.93;;;1.10;;
76703;SDS011;70080;44.504;0.168;2023-05-10T15:30:26;1.90;;;0.60;;
76703;SDS011;70080;44.504;0.168;2023-05-10T15:35:59;9.07;;;1.40;;
76703;SDS011;70080;44.504;0.168;2023-05-10T15:41:31;7.57;;;1.40;;
76703;SDS011;70080;44.504;0.168;2023-05-10T15:47:03;7.17;;;1.53;;
76703;SDS011;70080;44.504;0.168;2023-05-10T15:52:36;4.07;;;0.80;;
76703;SDS011;70080;44.504;0.168;2023-05-10T15:58:08;2.20;;;0.57;;
76703;SDS011;70080;44.504;0.168;2023-05-10T16:03:42;3.40;;;1.10;;
76703;SDS011;70080;44.504;0.168;2023-05-10T16:09:15;5.43;;;1.37;;
76703;SDS011;70080;44.504;0.168;2023-05-10T16:14:48;10.33;;;1.83;;
76703;SDS011;70080;44.504;0.168;2023-05-10T16:20:21;4.70;;;1.03;;
76703;SDS011;70080;44.504;0.168;2023-05-10T16:25:53;7.37;;;1.00;;
76703;SDS011;70080;44.504;0.168;2023-05-10T16:31:25;6.33;;;1.67;;
76703;SDS011;70080;44.504;0.168;2023-05-10T16:36:58;5.50;;;1.53;;
76703;SDS011;70080;44.504;0.168;2023-05-10T16:42:30;1.60;;;0.93;;
76703;SDS011;70080;44.504;0.168;2023-05-10T16:48:03;7.07;;;1.50;;
76703;SDS011;70080;44.504;0.168;2023-05-10T16:53:35;6.17;;;1.97;;
76703;SDS011;70080;44.504;0.168;2023-05-10T16:59:07;8.43;;;1.83;;
76703;SDS011;70080;44.504;0.168;2023-05-10T17:04:39;6.00;;;1.60;;
76703;SDS011;70080;44.504;0.168;2023-05-10T17:10:11;7.87;;;1.07;;
76703;SDS011;70080;44.504;0.168;2023-05-10T17:15:44;5.83;;;1.47;;
76703;SDS011;70080;44.504;0.168;2023-05-10T17:21:16;8.10;;;1.53;;
76703;SDS011;70080;44.504;0.168;2023-05-10T17:26:49;5.80;;;1.30;;
76703;SDS011;70080;44.504;0.168;2023-05-10T17:32:21;8.33;;;1.73;;
76703;SDS011;70080;44.504;0.168;2023-05-10T17:37:53;5.77;;;0.87;;
76703;SDS011;70080;44.504;0.168;2023-05-10T17:43:26;10.53;;;2.80;;
76703;SDS011;70080;44.504;0.168;2023-05-10T17:48:59;11.10;;;1.53;;
76703;SDS011;70080;44.504;0.168;2023-05-10T17:54:31;3.20;;;1.73;;
76703;SDS011;70080;44.504;0.168;2023-05-10T18:00:07;7.77;;;1.00;;
76703;SDS011;70080;44.504;0.168;2023-05-10T18:05:38;6.87;;;0.77;;
76703;SDS011;70080;44.504;0.168;2023-05-10T18:11:10;6.70;;;1.90;;
76703;SDS011;70080;44.504;0.168;2023-05-10T18:16:44;11.07;;;2.03;;
76703;SDS011;70080;44.504;0.168;2023-05-10T18:22:16;6.57;;;0.60;;
76703;SDS011;70080;44.504;0.168;2023-05-10T18:27:48;10.37;;;1.20;;
76703;SDS011;70080;44.504;0.168;2023-05-10T18:33:22;6.57;;;2.03;;
76703;SDS011;70080;44.504;0.168;2023-05-10T18:38:55;18.97;;;2.20;;
76703;SDS011;70080;44.504;0.168;2023-05-10T18:44:28;7.57;;;1.73;;
76703;SDS011;70080;44.504;0.168;2023-05-10T18:50:02;15.20;;;2.13;;
76703;SDS011;70080;44.504;0.168;2023-05-10T18:55:33;4.90;;;1.50;;
76703;SDS011;70080;44.504;0.168;2023-05-10T19:01:07;8.67;;;1.47;;
76703;SDS011;70080;44.504;0.168;2023-05-10T19:06:41;9.30;;;1.13;;
76703;SDS011;70080;44.504;0.168;2023-05-10T19:12:12;10.33;;;2.20;;
76703;SDS011;70080;44.504;0.168;2023-05-10T19:17:45;7.30;;;0.93;;
76703;SDS011;70080;44.504;0.168;2023-05-10T19:23:18;11.67;;;1.53;;
76703;SDS011;70080;44.504;0.168;2023-05-10T19:28:50;7.73;;;1.17;;
76703;SDS011;70080;44.504;0.168;2023-05-10T19:34:23;6.70;;;1.40;;
76703;SDS011;70080;44.504;0.168;2023-05-10T19:39:56;7.33;;;1.70;;
76703;SDS011;70080;44.504;0.168;2023-05-10T19:45:29;14.20;;;2.10;;
76703;SDS011;70080;44.504;0.168;2023-05-10T19:51:03;9.17;;;1.40;;
76703;SDS011;70080;44.504;0.168;2023-05-10T19:56:35;6.10;;;1.07;;
76703;SDS011;70080;44.504;0.168;2023-05-10T20:02:07;7.00;;;1.20;;
76703;SDS011;70080;44.504;0.168;2023-05-10T20:07:41;6.07;;;1.83;;
76703;SDS011;70080;44.504;0.168;2023-05-10T20:13:13;11.50;;;1.73;;
76703;SDS011;70080;44.504;0.168;2023-05-10T20:18:46;16.30;;;1.97;;
76703;SDS011;70080;44.504;0.168;2023-05-10T20:24:17;13.40;;;1.70;;
76703;SDS011;70080;44.504;0.168;2023-05-10T20:29:50;10.93;;;1.50;;
76703;SDS011;70080;44.504;0.168;2023-05-10T20:35:22;5.60;;;1.20;;
76703;SDS011;70080;44.504;0.168;2023-05-10T20:40:55;4.83;;;1.10;;
76703;SDS011;70080;44.504;0.168;2023-05-10T20:46:29;8.73;;;1.93;;
76703;SDS011;70080;44.504;0.168;2023-05-10T20:52:00;14.60;;;2.13;;
76703;SDS011;70080;44.504;0.168;2023-05-10T20:57:34;10.53;;;1.83;;
76703;SDS011;70080;44.504;0.168;2023-05-10T21:03:08;13.83;;;1.40;;
76703;SDS011;70080;44.504;0.168;2023-05-10T21:08:41;14.87;;;1.70;;
76703;SDS011;70080;44.504;0.168;2023-05-10T21:14:14;10.13;;;1.27;;
76703;SDS011;70080;44.504;0.168;2023-05-10T21:19:47;11.50;;;1.47;;
76703;SDS011;70080;44.504;0.168;2023-05-10T21:25:21;9.70;;;2.00;;
76703;SDS011;70080;44.504;0.168;2023-05-10T21:30:54;12.27;;;1.80;;
76703;SDS011;70080;44.504;0.168;2023-05-10T21:36:27;5.63;;;1.60;;
76703;SDS011;70080;44.504;0.168;2023-05-10T21:42:00;10.13;;;1.60;;
76703;SDS011;70080;44.504;0.168;2023-05-10T21:47:34;11.13;;;1.53;;
76703;SDS011;70080;44.504;0.168;2023-05-10T21:53:06;17.77;;;1.80;;
76703;SDS011;70080;44.504;0.168;2023-05-10T21:58:39;12.20;;;1.93;;
76703;SDS011;70080;44.504;0.168;2023-05-10T22:04:12;6.27;;;1.87;;
76703;SDS011;70080;44.504;0.168;2023-05-10T22:09:44;16.50;;;1.63;;
76703;SDS011;70080;44.504;0.168;2023-05-10T22:15:17;9.37;;;1.47;;
76703;SDS011;70080;44.504;0.168;2023-05-10T22:20:49;11.93;;;1.67;;
76703;SDS011;70080;44.504;0.168;2023-05-10T22:26:22;7.63;;;1.80;;
76703;SDS011;70080;44.504;0.168;2023-05-10T22:31:55;8.63;;;1.80;;
76703;SDS011;70080;44.504;0.168;2023-05-10T22:37:29;11.33;;;2.07;;
76703;SDS011;70080;44.504;0.168;2023-05-10T22:43:01;3.67;;;0.80;;
76703;SDS011;70080;44.504;0.168;2023-05-10T22:48:34;14.87;;;1.40;;
76703;SDS011;70080;44.504;0.168;2023-05-10T22:54:07;6.67;;;2.00;;
76703;SDS011;70080;44.504;0.168;2023-05-10T22:59:42;11.53;;;1.50;;
76703;SDS011;70080;44.504;0.168;2023-05-10T23:05:14;12.93;;;1.87;;
76703;SDS011;70080;44.504;0.168;2023-05-10T23:10:46;12.30;;;1.47;;
76703;SDS011;70080;44.504;0.168;2023-05-10T23:16:20;10.03;;;1.43;;
76703;SDS011;70080;44.504;0.168;2023-05-10T23:21:52;10.63;;;1.63;;
76703;SDS011;70080;44.504;0.168;2023-05-10T23:27:27;12.97;;;1.90;;
76703;SDS011;70080;44.504;0.168;2023-05-10T23:32:59;8.60;;;2.17;;
76703;SDS011;70080;44.504;0.168;2023-05-10T23:38:31;8.03;;;1.30;;
76703;SDS011;70080;44.504;0.168;2023-05-10T23:44:04;11.43;;;3.10;;
76703;SDS011;70080;44.504;0.168;2023-05-10T23:49:37;7.23;;;1.53;;
76703;SDS011;70080;44.504;0.168;2023-05-10T23:55:10;9.90;;;1.70;;
